Bateen Airport
OMAD : now visible

Airfield :











YOU CAN JOIN US ON...

 
LOGIN :

Register | Disclaimer

   EN    FR    IT 

 









Legend :    VFR   Marginal VFR   IFR   Intensive IFR   Very Intensive IFR
Visi :
Ceiling :
>= 8 km
>= 3000ft
5 to 8 km
1000 to 3000 ft
1500m to 5 km
500 to 1000 ft
800 to 1500m
200 to 500 ft
< 800m
< 200 ft
Symbols :   Thunderstorms  Fog  Heavy snow  Heavy precipitations  Wind > 20 kt







- Airport Elevation : 16 ft
- IATA code : AZI


OMAD - Bateen

CURRENT METAR :
  • 220600Z 09006KT CAVOK 27/14 Q1015 NOSIG

EXPIRED METARs :
  • 220500Z 06004KT 020V110 9000 NSC 24/14 Q1015 NOSIG
  • 220400Z 05006KT 020V080 9000 NSC 23/15 Q1014 NOSIG

TAF TAF OMAD
Valid from the 22 at 06:00 until the 23 at 12:00 UTC


220500Z 2206/2312 12011KT 8000 FEW045
PROB30
TEMPO 2207/2213 VRB18G30KT 4000 TSRA BLDU FEW040CB
BECMG 2212/2214 05008KT
PROB30
TEMPO 2221/2306 VRB20G35KT 3000 TSRA BLDU FEW040CB
BECMG 2223/2301 15014KT
OMAE FIR / Asia



MET'MAP, your aeronautical weather chart ! - Copyright ORBIFLY December 2007 - Disclaimer

ORBIFLY MET'MAP TEAM :

Programming & Development : Alexandra Zaïnal
Concept & Development : Baudouin d'Aumeries
Co-Development & Prog : Marc-Olivier Méhu
Technical & hardware support : Manuel Goepfert

Contact : metmap@orbifly.com




SOURCES & CREDITS :

   NOAA       Earth
Advisory